Tiempo atmosférico en la estación meteorológica de Bielsa, Huesca (990 m.)



Fecha
DESCASC
Temp. máxima en grados centígrados (hora)
DESCASC
Temp. mínima en grados centígrados (hora)
DESCASC
Temp. media en grados centígrados
DESCASC
Racha de viento máxima en m/sg (hora)
DESCASC
Velocidad máxima media en intervalos de 10 minutos(hora)
DESCASC
Precipitaciones diarias en mm
DESCASC
Precipitaciones de 00:00 a 06:00 en mm
DESCASC
Precipitaciones de 06:00 a 12:00 en mm
DESCASC
Precipitaciones de 12:00 a 18:00 en mm
DESCASC
Precipitaciones de 18:00 a 24:00 en mm
DESCASC
13-10-2019 19.7 (16:20) 14.2 (20:40) 17 8.33 (03:40) 3.61 (23:59) 0 0 0 0 0
12-10-2019 21.8 (14:30) 10.5 (03:30) 16.1 8.89 (14:50) 3.06 (14:50) 0 0 0 0 0
11-10-2019 24.8 (15:40) 5.3 (08:30) 15 8.89 (13:20) 3.61 (13:40) 0 0 0 0 0
10-10-2019 21.4 (14:50) 5.7 (00:00) 13.5 8.33 (13:30) 3.33 (15:20) 0 0 0 0 0
09-10-2019 23.1 (13:50) 8.8 (00:00) 16 7.78 (14:00) 2.5 (11:50) 0 0 0 0 0
08-10-2019 25.3 (15:50) 9.8 (00:00) 17.5 10 (15:50) 3.06 (14:00) 0 0 0 0 0
07-10-2019 23.7 (14:10) 12 (00:00) 17.9 14.44 (07:40) 5 (04:00) 0 0 0 0 0
06-10-2019 21.4 (14:30) 6.4 (00:00) 13.9 12.22 (22:40) 5 (22:40) 0 0 0 0 0
05-10-2019 24.8 (15:40) 5.7 (00:00) 15.2 9.17 (14:50) 3.33 (14:30) 0 0 0 0 0
04-10-2019 24.4 (15:10) 4.8 (00:00) 14.6 9.72 (14:20) 3.06 (13:00) 0 0 0 0 0
03-10-2019 23 (15:30) 3.2 (00:00) 13.1 8.33 (14:10) 3.06 (00:40) 0 0 0 0 0
02-10-2019 20.9 (13:50) 7.8 (00:00) 14.3 13.61 (15:00) 5.28 (15:10) 0 0 0 0 0
01-10-2019 25.6 (14:50) 8.4 (00:00) 17 6.94 (16:30) 1.94 (17:30) 0 0 0 0 0
30-09-2019 27.4 (15:20) 7.3 (00:00) 17.3 6.11 (15:10) 2.22 (12:50) 0 0 0 0 0
29-09-2019 27.3 (15:20) 7.7 (00:00) 17.5 8.33 (12:50) 2.22 (13:40) 0 0 0 0 0
28-09-2019 23.5 (14:00) 6.3 (00:00) 14.9 13.06 (12:00) 5 (12:00) 0 0 0 0 0
27-09-2019 24.8 (15:30) 9 (00:00) 16.9 6.11 (13:50) 1.94 (11:20) 0 0 0 0 0
26-09-2019 24.5 (15:40) 9.3 (00:00) 16.9 10.83 (12:40) 3.06 (12:50) 0 0 0 0 0
25-09-2019 23 (15:20) 8.5 (00:00) 15.8 7.22 (12:10) 2.78 (14:10) 0 0 0 0 0
24-09-2019 25.9 (16:00) 8.3 (00:00) 17.1 10.56 (12:40) 4.72 (12:40) 0 0 0 0 0
23-09-2019 21 (13:30) 7.2 (00:00) 14.1 6.67 (14:00) 2.5 (12:20) 0 0 0 0 0
22-09-2019 18.1 (16:00) 10.8 (00:00) 14.5 11.67 (14:00) 5.28 (10:20) 48.6 19.6 21.2 7.8 0
21-09-2019 22.7 (13:00) 13.8 (00:00) 18.3 8.61 (15:00) 3.33 (18:40) 1.2 0 0.4 0 0.8
20-09-2019 23.8 (13:30) 11.6 (00:00) 17.7 8.33 (14:50) 3.61 (13:30) 0.4 0 0 0.4 0
19-09-2019 24.8 (13:40) 10.6 (00:00) 17.7 8.61 (18:10) 3.61 (14:10) 2.4 0.2 0 2.2 0
18-09-2019 26.8 (16:10) 11.2 (00:00) 19 13.89 (17:00) 5 (16:50) 3.8 0.4 0 1 2.4
17-09-2019 29.7 (15:10) 11.9 (00:00) 20.8 8.61 (14:50) 3.61 (17:40) 2.4 0 0 0 2.4
16-09-2019 28.8 (15:30) 12.8 (00:00) 20.8 7.78 (13:10) 2.5 (13:10) 0 0 0 0 0
15-09-2019 29.2 (15:20) 13.3 (00:00) 21.3 8.89 (18:00) 3.89 (07:00) 2.6 2 0.6 0 0

Gráficas

Temp. máximas Temp. mínimas Temp. medias Precipitaciones Rachas de viento máximas Velocidades máximas media en intervalos de 10 minutos

Datos horarios

Fecha y hora oficial Temperatura (ºC) Velocidad del viento (km/h) Dirección del viento Racha (km/h) Dirección de racha Precipitación (mm) Presión (hPa) Tendencia (hPa) Humedad (%)
2019-10-14 23:00:00 12.8 11 Sudeste 49 Este 0 898.7 -0.3 81
2019-10-14 22:00:00 11.9 5 Sur 23 Este 3.6 898.7 0.4 96
2019-10-14 21:00:00 12 4 Sudeste 17 Sudeste 11.8 899.1 0.6 96
2019-10-14 20:00:00 12.2 4 Norte 8 Norte 5 899 -1.4 95
2019-10-14 19:00:00 13 0 Calma 22 Sur 0.2 898.3 -2.8 90
2019-10-14 18:00:00 13.7 6 Sudeste 28 Este 0 898.5 -2.8 83
2019-10-14 17:00:00 14.3 10 Sudeste 42 Este 0 900.4 -1.1 74
2019-10-14 16:00:00 13.9 11 Este 73 Este 1 901.1 -1.6 80
2019-10-14 15:00:00 13.6 22 Este 70 Este 4.8 901.3 -1.6 84
2019-10-14 14:00:00 13.3 10 Este 43 Este 5.2 901.5 -1.1 92
2019-10-14 13:00:00 13.9 26 Este 59 Este 1.4 902.7 0.1 86
2019-10-14 12:00:00 13.8 10 Sudeste 35 Este 1.2 902.9 0.3 88
2019-10-14 11:00:00 13.5 2 Sudeste 36 Este 0.6 902.6 -0.2 95
2019-10-14 10:00:00 12.5 4 Este 16 Sudeste 0 902.6 -0.3 94
2019-10-14 09:00:00 10.7 0 Calma 8 Noroeste 0 902.6 -0.6 95
2019-10-14 08:00:00 10.4 0 Calma 5 Oeste 0 902.8 -0.8 95
2019-10-14 07:00:00 10.7 2 Noroeste 7 Noroeste 0 902.9 -1.2 94
2019-10-14 06:00:00 10.9 2 Noroeste 13 Oeste 0 903.2 -1.6 92
2019-10-14 05:00:00 12.3 0 Calma 5 Norte 0 903.6 -0.7 89
2019-10-14 04:00:00 15.2 0 Calma 22 Este 0 904.1 -0.5 82
2019-10-14 03:00:00 16.4 14 Este 45 Este 0 904.8 -0.1 76
2019-10-14 02:00:00 16.8 7 Sudeste 32 Este 0 904.3 -0.8 75
2019-10-14 01:00:00 16.8 6 Sudeste 33 Este 0 904.6 -0.1 77
2019-10-14 00:00:00 17.1 13 Este 28 Este 0 904.9 0.4 76
2019-10-13 23:00:00 17.5 11 Sudeste 30 Este 0 905.1 0.6 73
2019-10-13 22:00:00 17.7 7 Sudeste 22 Sur 0 904.7 0.4 66
2019-10-13 21:00:00 14.9 4 Sudeste 17 Sudeste 0 904.5 0.1 80
2019-10-13 20:00:00 14.8 0 Calma 6 Norte 0 904.5 -0.1 80
2019-10-13 19:00:00 17 2 Sur 18 Sudeste 0 904.3 -0.5 69
2019-10-13 18:00:00 17.3 2 Noroeste 10 Sudoeste 0 904.4 -0.9 72
2019-10-13 17:00:00 18.8 2 Sur 19 Este 0 904.6 -1.3 67
2019-10-13 16:00:00 19.4 5 Sudeste 23 Este 0 904.8 -1.6 60
2019-10-13 15:00:00 19.4 5 Sudeste 23 Sudeste 0 905.3 -1.1 60
2019-10-13 14:00:00 19.1 6 Sudeste 25 Este 0 905.9 -0.2 61
2019-10-13 13:00:00 18.2 9 Este 30 Sur 0 906.4 0.3 63
2019-10-13 12:00:00 17.7 7 Sudeste 27 Sur 0 906.4 0.8 68
2019-10-13 11:00:00 17.1 6 Sudeste 24 Este 0 906.1 0.8 70
2019-10-13 10:00:00 15 4 Sudeste 18 Sudeste 0 906.1 0.8 83
2019-10-13 09:00:00 14.8 5 Sur 20 Sur 0 905.6 0.4 83
2019-10-13 08:00:00 14.7 5 Sudeste 21 Sudeste 0 905.3 -0.2 85
2019-10-13 07:00:00 14.8 4 Sudeste 18 Sudeste 0 905.3 -0.5 84
2019-10-13 06:00:00 15.2 6 Sudeste 19 Sudeste 0 905.2 -1.1 82
2019-10-13 05:00:00 15.4 7 Sudeste 22 Sur 0 905.5 -1.3 82
2019-10-13 04:00:00 15.3 6 Sudeste 30 Este 0 905.8 -0.7 85
2019-10-13 03:00:00 14.6 4 Sudeste 13 Sur 0 906.3 -0.5 89
2019-10-13 02:00:00 14.5 2 Noroeste 10 Noroeste 0 906.8 0.2 89
2019-10-13 01:00:00 14.5 5 Noroeste 12 Sudeste 0 906.5 0.4 88
2019-10-13 00:00:00 16.1 4 Sudeste 22 Sur 0 906.8 0.9 82
2019-10-12 23:00:00 16.9 7 Sudeste 21 Sur 0 906.6 0.9 78
2019-10-12 22:00:00 17.5 9 Sudeste 25 Este 0 906.1 0.5 73
2019-10-12 21:00:00 14.8 3 Este 10 Nordeste 0 905.9 0.1 83
2019-10-12 20:00:00 16.8 4 Sur 15 Este 0 905.7 -0.3 73
2019-10-12 19:00:00 17.9 5 Sur 18 Sudeste 0 905.6 -0.8 69
2019-10-12 18:00:00 19.4 3 Sudeste 14 Sudeste 0 905.8 -1.1 63
2019-10-12 17:00:00 19.9 5 Sudeste 16 Sudeste 0 906 -1.1 61
2019-10-12 16:00:00 19.8 4 Sur 20 Sur 0 906.4 -1.3 65
2019-10-12 15:00:00 21 7 Sudeste 32 Sudeste 0 906.9 -1 57
2019-10-12 14:00:00 20.4 7 Sur 28 Este 0 907.1 -0.9 62
2019-10-12 13:00:00 20.3 8 Sudeste 25 Este 0 907.7 -0.5 62
2019-10-12 12:00:00 19.1 5 Sudeste 28 Sudeste 0 907.9 0 70
2019-10-12 11:00:00 16.9 0 Calma 7 Sudeste 0 908 0.4 79
2019-10-12 10:00:00 14.4 0 Calma 13 Sudeste 0 908.2 0.5 90
2019-10-12 09:00:00 12.9 2 Sudeste 5 Noroeste 0 907.9 1.2 94
2019-10-12 08:00:00 12.5 0 Calma 13 Sudoeste 0 907.6 0.1 93
2019-10-12 07:00:00 12.3 2 Norte 14 Norte 0 907.7 0 92
2019-10-12 06:00:00 12 3 Noroeste 9 Norte 0 906.7 -1.4 93
2019-10-12 05:00:00 11.6 2 Nordeste 8 Noroeste 0 907.5 -0.6 93
2019-10-12 04:00:00 10.8 3 Noroeste 9 Noroeste 0 907.7 -0.7 94
2019-10-12 03:00:00 10.7 3 Norte 8 Noroeste 0 908.1 -0.6 92
2019-10-12 02:00:00 11.2 2 Noroeste 5 Norte 0 908.1 -0.5 90
2019-10-12 01:00:00 11.5 0 Calma 6 Noroeste 0 908.4 0.3 88
2019-10-12 00:00:00 11.5 3 Noroeste 7 Norte 0 908.7 1.2 88
2019-10-11 23:00:00 11.5 0 Calma 7 Noroeste 0 908.6 1.3 87
2019-10-11 22:00:00 11.7 0 Calma 8 Noroeste 0 908.1 1 85
2019-10-11 21:00:00 12.5 3 Noroeste 8 Noroeste 0 907.5 0.6 82
2019-10-11 20:00:00 13.5 3 Noroeste 8 Noroeste 0 907.3 0.5 80
2019-10-11 19:00:00 15.5 2 Noroeste 5 Noroeste 0 907.1 0.1 73
2019-10-11 18:00:00 18 3 Noroeste 19 Este 0 906.9 -0.5 60
2019-10-11 17:00:00 20.4 6 Este 22 Este 0 906.8 -1.3 49
2019-10-11 16:00:00 24 7 Sudeste 27 Este 0 907 -1.9 36
2019-10-11 15:00:00 24.4 8 Sudeste 29 Sur 0 907.4 -2.2 35
2019-10-11 14:00:00 23.4 8 Sudeste 32 Sur 0 908.1 -1.8 35
2019-10-11 13:00:00 20.8 10 Sudeste 31 Sur 0 908.9 -1.2 40
2019-10-11 12:00:00 17 4 Sudeste 13 Sudeste 0 909.6 -0.5 54
2019-10-11 11:00:00 11.9 2 Sudeste 9 Noroeste 0 909.9 0.2 77
2019-10-11 10:00:00 6.9 0 Calma 12 Noroeste 0 910.1 0.8 95
2019-10-11 09:00:00 6 4 Oeste 13 Norte 0 910.1 0.7 95
2019-10-11 08:00:00 5.4 2 Noroeste 13 Este 0 909.7 0.2 95
2019-10-11 07:00:00 6 3 Noroeste 12 Noroeste 0 909.3 -0.5 94
2019-10-11 06:00:00 6 0 Calma 8 Noroeste 0 909.4 -0.9 94
2019-10-11 05:00:00 6.7 3 Oeste 13 Norte 0 909.5 -0.8 93
2019-10-11 04:00:00 6.2 3 Noroeste 13 Norte 0 909.8 -0.5 94
2019-10-11 03:00:00 6.1 0 Calma 6 Noroeste 0 910.3 0 94
2019-10-11 02:00:00 6.6 0 Calma 8 Oeste 0 910.3 -0.1 92
2019-10-11 01:00:00 7.2 0 Calma 10 Norte 0 910.3 0.5 92
2019-10-11 00:00:00 7.5 0 Calma 8 Oeste 0 910.3 1.1 90
2019-10-10 23:00:00 8.2 0 Calma 8 Norte 0 910.4 1.5 88
2019-10-10 22:00:00 9.1 0 Calma 8 Noroeste 0 909.8 1.7 84
2019-10-10 21:00:00 10.7 2 Noroeste 16 Noroeste 0 909.2 1.6 80
2019-10-10 20:00:00 11.9 5 Noroeste 16 Noroeste 0 908.9 1.4 76
2019-10-10 19:00:00 13.3 3 Noroeste 12 Noroeste 0 908.1 0.6 71
2019-10-10 18:00:00 14.9 2 Noroeste 19 Sudeste 0 907.6 -0.2 65
2019-10-10 17:00:00 17.5 5 Sudeste 24 Este 0 907.5 -0.7 50
2019-10-10 16:00:00 20.5 9 Sudeste 30 Sudeste 0 907.5 -1.2 42
2019-10-10 15:00:00 21.1 10 Sudeste 30 Sur 0 907.8 -1.5 41
2019-10-10 14:00:00 20.3 10 Sudeste 30 Sur 0 908.2 -1.4 42
2019-10-10 13:00:00 18.6 9 Sur 28 Sur 0 908.7 -0.6 49
2019-10-10 12:00:00 15.9 8 Sur 19 Sudeste 0 909.3 0.6 58
2019-10-10 11:00:00 10.4 4 Este 9 Este 0 909.6 1.4 83
2019-10-10 10:00:00 6.9 0 Calma 14 Sudeste 0 909.3 1.2 96
2019-10-10 09:00:00 5.9 0 Calma 6 Noroeste 0 908.7 0.7 96
2019-10-10 08:00:00 5.8 0 Calma 8 Noroeste 0 908.2 0.2 96
2019-10-10 07:00:00 6.2 0 Calma 7 Noroeste 0 908.1 0.1 96
2019-10-10 06:00:00 6.6 0 Calma 7 Noroeste 0 908 -0.1 96
2019-10-10 05:00:00 6.8 0 Calma 14 Sudoeste 0 908 -0.1 96
2019-10-10 04:00:00 7.1 0 Calma 5 Noroeste 0 908 -0.1 95
2019-10-10 03:00:00 7.7 3 Norte 6 Sudoeste 0 908.1 0.4 95
2019-10-10 02:00:00 8 0 Calma 5 Noroeste 0 908.1 0.8 94
2019-10-10 01:00:00 8.6 2 Norte 4 Norte 0 908.1 1.4 92
2019-10-10 00:00:00 9.5 0 Calma 5 Norte 0 907.7 1.4 89
2019-10-09 23:00:00 10.4 0 Calma 7 Noroeste 0 907.3 2 88
2019-10-09 22:00:00 11.8 0 Calma 7 Norte 0 906.7 2.2 82
2019-10-09 21:00:00 13.6 4 Noroeste 14 Oeste 0 906.3 2 76
2019-10-09 20:00:00 15.3 4 Noroeste 18 Sudoeste 0 905.3 1 68
2019-10-09 19:00:00 15.6 3 Noroeste 10 Norte 0 904.5 0.1 72
2019-10-09 18:00:00 18.3 2 Noroeste 20 Este 0 904.3 -0.1 61
2019-10-09 17:00:00 20.1 6 Sudeste 23 Sur 0 904.3 -0.6 51
2019-10-09 16:00:00 21.1 7 Sudeste 23 Sur 0 904.4 -0.9 51
2019-10-09 15:00:00 22.1 5 Sudeste 27 Este 0 904.4 -1.5 46
2019-10-09 14:00:00 22.8 8 Sudeste 28 Este 0 904.9 -1.1 44
2019-10-09 13:00:00 19.6 6 Sudeste 25 Sudeste 0 905.3 -0.7 54
2019-10-09 12:00:00 19.4 8 Sudeste 24 Sudeste 0 905.9 -0.2 54
2019-10-09 11:00:00 13.7 3 Sudeste 14 Sur 0 906 0 81
2019-10-09 10:00:00 11.2 0 Calma 5 Norte 0 906 0.3 93
2019-10-09 09:00:00 10 2 Noroeste 14 Sudoeste 0 906.1 0.3 94
2019-10-09 08:00:00 9.4 2 Noroeste 5 Noroeste 0 906 0.1 95
2019-10-09 07:00:00 8.9 0 Calma 10 Noroeste 0 905.7 -0.4 95
2019-10-09 06:00:00 9 2 Norte 14 Oeste 0 905.8 -0.5 95
2019-10-09 05:00:00 8.8 0 Calma 5 Norte 0 905.9 -0.4 95
2019-10-09 04:00:00 9 0 Calma 15 Oeste 0 906.1 -0.4 94
2019-10-09 03:00:00 9.2 0 Calma 5 Noroeste 0 906.3 -0.4 94
2019-10-09 02:00:00 9.6 2 Noroeste 6 Noroeste 0 906.3 -0.2 93
2019-10-09 01:00:00 10 0 Calma 5 Noroeste 0 906.5 0.2 90
2019-10-09 00:00:00 10.7 0 Calma 8 Noroeste 0 906.7 0.5 89
2019-10-08 23:00:00 11.4 0 Calma 6 Noroeste 0 906.5 0.6 86
2019-10-08 22:00:00 12.4 0 Calma 8 Oeste 0 906.3 0.9 83
2019-10-08 21:00:00 13.4 2 Noroeste 8 Noroeste 0 906.2 1.3 81
2019-10-08 20:00:00 15.1 2 Noroeste 14 Noroeste 0 905.9 1.1 73
2019-10-08 19:00:00 17.2 4 Noroeste 16 Oeste 0 905.4 0.3 66
2019-10-08 18:00:00 19.2 3 Noroeste 18 Sudeste 0 904.9 -0.4 57
2019-10-08 17:00:00 21.7 5 Sur 26 Sur 0 904.8 -1.1 43
2019-10-08 16:00:00 24.4 8 Sudeste 36 Sur 0 905.1 -1.5 36
2019-10-08 15:00:00 25.1 8 Sudeste 30 Este 0 905.3 -1.6 35
2019-10-08 14:00:00 23.9 11 Sur 29 Sudeste 0 905.9 -1.1 36
2019-10-08 13:00:00 22.1 8 Sudeste 25 Este 0 906.6 -1 44
2019-10-08 12:00:00 20.1 9 Sudeste 25 Sudeste 0 906.9 -0.7 53
2019-10-08 11:00:00 15.7 0 Calma 17 Sudoeste 0 907 -0.1 74
2019-10-08 10:00:00 10.9 0 Calma 5 Noroeste 0 907.6 0.7 95
2019-10-08 09:00:00 9.8 2 Norte 7 Noroeste 0 907.6 1 94
2019-10-08 08:00:00 10 3 Noroeste 7 Norte 0 907.1 0.2 93
2019-10-08 07:00:00 10.5 2 Norte 5 Noroeste 0 906.9 0.1 90
2019-10-08 06:00:00 11.7 0 Calma 10 Noroeste 0 906.6 -0.5 85
2019-10-08 05:00:00 12.3 2 Noroeste 9 Noroeste 0 906.9 0 84
2019-10-08 04:00:00 14.2 2 Noroeste 5 Noroeste 0 906.8 0 78
2019-10-08 03:00:00 14.5 3 Noroeste 8 Noroeste 0 907.1 0.1 75
2019-10-08 02:00:00 14.5 2 Noroeste 6 Noroeste 0 906.9 0.2 74
2019-10-08 01:00:00 14.5 0 Calma 6 Noroeste 0 906.8 0.6 73
2019-10-08 00:00:00 14.6 2 Noroeste 10 Norte 0 907 0.8 69
2019-10-07 23:00:00 15.1 3 Noroeste 23 Noroeste 0 906.7 0.8 64
2019-10-07 22:00:00 17.6 7 Norte 25 Noroeste 0 906.2 0.8 54
2019-10-07 21:00:00 18.7 10 Noroeste 37 Noroeste 0 906.2 1.5 48
2019-10-07 20:00:00 19.7 10 Noroeste 28 Noroeste 0 905.9 1.8 44
2019-10-07 19:00:00 20.4 10 Noroeste 32 Noroeste 0 905.4 1.4 38
2019-10-07 18:00:00 21.1 10 Noroeste 40 Noroeste 0 904.7 0.3 34
2019-10-07 17:00:00 21.5 10 Noroeste 35 Noroeste 0 904.1 -0.2 31
2019-10-07 16:00:00 22.9 13 Noroeste 38 Noroeste 0 904 -0.5 24
2019-10-07 15:00:00 23.2 11 Noroeste 47 Noroeste 0 904.4 -0.2 19
2019-10-07 14:00:00 23.3 13 Noroeste 39 Noroeste 0 904.3 0.1 18
2019-10-07 13:00:00 21.3 9 Noroeste 41 Oeste 0 904.5 1 17
2019-10-07 12:00:00 20.9 10 Noroeste 36 Sudoeste 0 904.6 1.4 15
2019-10-07 11:00:00 20.1 8 Oeste 38 Oeste 0 904.2 1.3 13
2019-10-07 10:00:00 18.4 12 Noroeste 39 Noroeste 0 903.5 0.5 15
2019-10-07 09:00:00 15.7 13 Noroeste 50 Noroeste 0 903.2 0.6 19
2019-10-07 08:00:00 14.7 11 Noroeste 52 Noroeste 0 902.9 -0.5 21
2019-10-07 07:00:00 14.6 14 Noroeste 43 Noroeste 0 903 -1.3 24
2019-10-07 06:00:00 14.1 7 Noroeste 41 Oeste 0 902.6 -2.1 29
2019-10-07 05:00:00 14.5 14 Noroeste 46 Noroeste 0 903.4 -1.9 29
2019-10-07 04:00:00 14.4 18 Noroeste 49 Noroeste 0 904.3 -1.5 31
2019-10-07 03:00:00 13.6 10 Noroeste 44 Noroeste 0 904.7 -0.9 35
2019-10-07 02:00:00 13.6 9 Noroeste 30 Noroeste 0 905.3 -0.9 32
2019-10-07 01:00:00 14.2 11 Noroeste 46 Noroeste 0 905.8 0.3 32
2019-10-07 00:00:00 13.8 10 Noroeste 23 Noroeste 0 905.6 0.3 37
2019-10-06 23:00:00 14.9 12 Noroeste 44 Noroeste 0 906.2 1.1 42
2019-10-06 22:00:00 15.8 14 Noroeste 35 Noroeste 0 905.5 0.4 42
2019-10-06 21:00:00 15.9 8 Noroeste 29 Oeste 0 905.3 1 48
2019-10-06 20:00:00 16.3 14 Noroeste 35 Noroeste 0 905.1 1.5 54
2019-10-06 19:00:00 17.7 12 Noroeste 29 Noroeste 0 905.1 0.7 51
2019-10-06 18:00:00 16.7 6 Noroeste 15 Este 0 904.3 -0.2 68
2019-10-06 17:00:00 19.2 5 Sur 22 Sudeste 0 903.6 -1.5 54
2019-10-06 16:00:00 20.7 6 Sudeste 24 Sur 0 904.4 -1.4 46
2019-10-06 15:00:00 19.8 8 Sudeste 30 Sur 0 904.5 -1.1 51
2019-10-06 14:00:00 20.1 7 Sudeste 22 Sudeste 0 905.1 -1.1 51
2019-10-06 13:00:00 18.3 5 Sudeste 15 Este 0 905.8 -0.3 57
2019-10-06 12:00:00 15.4 4 Sudeste 13 Este 0 905.6 -0.3 62
2019-10-06 11:00:00 11.9 3 Noroeste 9 Norte 0 906.2 0.6 75
2019-10-06 10:00:00 8.8 0 Calma 14 Sudoeste 0 906.1 0.7 94
2019-10-06 09:00:00 7 2 Noroeste 13 Sudoeste 0 905.9 0.8 94
2019-10-06 08:00:00 6.7 0 Calma 9 Noroeste 0 905.6 0.6 95
2019-10-06 07:00:00 7.2 0 Calma 12 Norte 0 905.4 -0.2 94
2019-10-06 06:00:00 7.4 4 Noroeste 13 Sudoeste 0 905.1 -0.9 95
2019-10-06 05:00:00 7.6 2 Norte 8 Noroeste 0 905 -1 94
2019-10-06 04:00:00 7.8 0 Calma 18 Oeste 0 905.6 -0.3 94
2019-10-06 03:00:00 7.9 2 Nordeste 14 Sudoeste 0 906 0.1 93
2019-10-06 02:00:00 8.1 0 Calma 5 Noroeste 0 906 0.2 93
2019-10-06 01:00:00 8.8 2 Noroeste 8 Norte 0 905.9 0.5 92
2019-10-06 00:00:00 9.2 0 Calma 14 Nordeste 0 905.9 0.8 91
2019-10-05 23:00:00 9.9 0 Calma 14 Norte 0 905.8 1.3 89
2019-10-05 22:00:00 10.9 0 Calma 8 Noroeste 0 905.4 1.9 86
2019-10-05 21:00:00 12.1 0 Calma 7 Noroeste 0 905.1 2.3 82
2019-10-05 20:00:00 14 2 Norte 18 Norte 0 904.5 2 74
2019-10-05 19:00:00 16 4 Noroeste 11 Noroeste 0 903.5 1.1 65
2019-10-05 18:00:00 17.8 3 Sudoeste 16 Este 0 902.8 0.2 60
2019-10-05 17:00:00 21.3 6 Sur 27 Sur 0 902.5 -0.5 44
2019-10-05 16:00:00 24.4 9 Sudeste 30 Sur 0 902.4 -1.1 35
2019-10-05 15:00:00 24.3 9 Sudeste 33 Sudeste 0 902.6 -1.3 35
2019-10-05 14:00:00 23.5 8 Sudeste 28 Sur 0 903 -1 39
2019-10-05 13:00:00 21.9 6 Sudeste 21 Sudeste 0 903.5 -0.5 39
2019-10-05 12:00:00 18.3 5 Sudeste 17 Sur 0 903.9 0 48
2019-10-05 11:00:00 12.1 2 Sudeste 8 Sudeste 0 904 0.6 65
2019-10-05 10:00:00 7.5 0 Calma 4 Este 0 904 0.9 90
2019-10-05 09:00:00 6.1 2 Nordeste 6 Oeste 0 903.9 0.7 89
2019-10-05 08:00:00 5.8 2 Noroeste 5 Noroeste 0 903.4 0.1 89
2019-10-05 07:00:00 6.3 0 Calma 9 Oeste 0 903.1 -0.6 87
2019-10-05 06:00:00 7.4 6 Noroeste 19 Norte 0 903.2 -1 82
2019-10-05 05:00:00 7.3 3 Noroeste 13 Sudoeste 0 903.3 -0.7 88
2019-10-05 04:00:00 7.9 2 Norte 12 Noroeste 0 903.7 -0.4 88
2019-10-05 03:00:00 9.1 3 Noroeste 12 Noroeste 0 904.2 0.1 85
2019-10-05 02:00:00 9.5 0 Calma 14 Noroeste 0 904 0.2 87
2019-10-05 01:00:00 9.9 4 Noroeste 9 Noroeste 0 904.1 0.2 89
2019-10-05 00:00:00 10.2 2 Noroeste 9 Noroeste 0 904.1 0.8 90
2019-10-04 23:00:00 10.9 3 Noroeste 7 Noroeste 0 903.8 0.9 87
2019-10-04 22:00:00 11.8 2 Noroeste 11 Noroeste 0 903.9 1.5 84
2019-10-04 21:00:00 12.9 0 Calma 10 Noroeste 0 903.3 1.3 81
2019-10-04 20:00:00 14.4 2 Noroeste 8 Noroeste 0 902.9 0.8 75
2019-10-04 19:00:00 16.1 2 Norte 14 Nordeste 0 902.4 -0.2 69
2019-10-04 18:00:00 17.7 4 Sudeste 15 Sudeste 0 902 -1.1 62
2019-10-04 17:00:00 20.7 3 Sudeste 24 Sur 0 902.1 -1.6 46
2019-10-04 16:00:00 24.1 6 Sudeste 27 Sudeste 0 902.6 -1.6 32
2019-10-04 15:00:00 24.1 9 Sur 35 Sudeste 0 903.1 -1.3 28
2019-10-04 14:00:00 23.2 7 Sudeste 30 Este 0 903.7 -1.2 30
2019-10-04 13:00:00 21.3 11 Sudeste 27 Sudeste 0 904.2 -1 32
2019-10-04 12:00:00 18.2 3 Este 8 Este 0 904.4 -0.8 40
2019-10-04 11:00:00 12.4 0 Calma 4 Sudeste 0 904.9 -0.1 62
2019-10-04 10:00:00 7.5 0 Calma 12 Este 0 905.2 0.4 90
2019-10-04 09:00:00 5.4 0 Calma 12 Sudoeste 0 905.2 0.6 92
2019-10-04 08:00:00 4.9 0 Calma 12 Sudeste 0 905 0.3 90
2019-10-04 07:00:00 5.2 3 Noroeste 12 Sudoeste 0 904.8 0.2 87
2019-10-04 06:00:00 5.6 4 Noroeste 9 Noroeste 0 904.6 -0.4 82
2019-10-04 05:00:00 5.1 4 Noroeste 10 Noroeste 0 904.7 -0.6 82
2019-10-04 04:00:00 5 3 Norte 7 Norte 0 904.6 -0.7 81
2019-10-04 03:00:00 5.1 2 Noroeste 7 Noroeste 0 905 -0.5 75
2019-10-04 02:00:00 5.8 3 Norte 15 Norte 0 905.3 -0.4 72
2019-10-04 01:00:00 6.2 3 Noroeste 14 Sudoeste 0 905.3 0.3 70
2019-10-04 00:00:00 6.2 2 Noroeste 8 Noroeste 0 905.5 1.1 71
2019-10-03 23:00:00 6.9 4 Norte 10 Noroeste 0 905.7 1.7 76
2019-10-03 22:00:00 8 0 Calma 9 Noroeste 0 905 1.4 73
2019-10-03 21:00:00 9.3 3 Noroeste 15 Sudoeste 0 904.4 1.4 68
2019-10-03 20:00:00 10.6 2 Noroeste 14 Noroeste 0 904 1.1 68
2019-10-03 19:00:00 13 3 Noroeste 14 Noroeste 0 903.6 0.6 56
2019-10-03 18:00:00 14.4 4 Noroeste 9 Sudeste 0 903 -0.2 59
2019-10-03 17:00:00 18.3 4 Sur 21 Este 0 902.9 -0.4 38
2019-10-03 16:00:00 22.7 8 Sudeste 25 Sur 0 903 -0.9 24
2019-10-03 15:00:00 22.4 9 Sudeste 30 Sudeste 0 903.2 -1.5 28
2019-10-03 14:00:00 21.5 8 Sudeste 27 Sudeste 0 903.3 -1.8 26
2019-10-03 13:00:00 19.8 4 Sudeste 16 Este 0 903.9 -1.2 29
2019-10-03 12:00:00 15.4 3 Sudeste 8 Este 0 904.7 -0.3 37
2019-10-03 11:00:00 10.3 6 Noroeste 14 Noroeste 0 905.1 -0.1 55
2019-10-03 10:00:00 6.5 0 Calma 15 Sudoeste 0 905.1 0.1 69
2019-10-03 09:00:00 4.3 3 Oeste 9 Noroeste 0 905 0 72
2019-10-03 08:00:00 3.4 3 Noroeste 8 Oeste 0 905.2 0.4 75
2019-10-03 07:00:00 3.6 2 Noroeste 9 Noroeste 0 905 0.3 75
2019-10-03 06:00:00 3.6 0 Calma 6 Noroeste 0 905 -0.2 76
2019-10-03 05:00:00 4.2 0 Calma 12 Noroeste 0 904.8 -0.6 73
2019-10-03 04:00:00 5.4 2 Noroeste 10 Noroeste 0 904.7 -0.8 71
2019-10-03 03:00:00 6.9 3 Noroeste 17 Noroeste 0 905.2 -0.6 65
2019-10-03 02:00:00 8.3 4 Oeste 17 Norte 0 905.4 -0.4 62
2019-10-03 01:00:00 11.3 7 Norte 29 Norte 0 905.5 -0.3 49
2019-10-03 00:00:00 13.7 10 Noroeste 38 Noroeste 0 905.8 0.5 43
2019-10-02 23:00:00 14.3 15 Noroeste 42 Noroeste 0 905.8 0.9 43
2019-10-02 22:00:00 14.6 15 Noroeste 42 Noroeste 0 905.8 1.5 44
2019-10-02 21:00:00 14.7 14 Noroeste 36 Noroeste 0 905.3 1.8 45
2019-10-02 20:00:00 14.9 12 Noroeste 32 Noroeste 0 904.9 1.7 46
2019-10-02 19:00:00 15.8 13 Noroeste 35 Noroeste 0 904.3 1.1 42
2019-10-02 18:00:00 16.7 12 Noroeste 33 Noroeste 0 903.5 0.7 42
2019-10-02 17:00:00 17.3 15 Noroeste 46 Noroeste 0 903.2 0.5 37
2019-10-02 16:00:00 18.3 15 Noroeste 44 Noroeste 0 903.2 0.7 35
2019-10-02 15:00:00 19.4 17 Noroeste 49 Noroeste 0 902.8 0.6 36
2019-10-02 14:00:00 20.1 12 Noroeste 33 Noroeste 0 902.7 0.9 33
2019-10-02 13:00:00 19.8 10 Noroeste 34 Noroeste 0 902.5 -- 41
2019-10-02 12:00:00 17.9 9 Noroeste 24 Noroeste 0 902.2 1.3 46
2019-10-02 11:00:00 15.5 5 Sudeste -- -- -- 901.8 1 60
2019-10-02 10:00:00 -- -- -- -- -- -- -- -- --
2019-10-02 09:00:00 10.9 2 Sudeste 11 Norte 0 900.9 0.8 81
2019-10-02 08:00:00 11.1 5 Noroeste 17 Norte 0 900.8 0.3 73
2019-10-02 07:00:00 10.5 6 Norte 20 Noroeste 0 900.4 -0.5 72
2019-10-02 06:00:00 8 2 Sudeste 15 Oeste 0 900.1 -1.2 83
2019-10-02 05:00:00 7.9 2 Norte 7 Noroeste 0 900.5 -0.8 87
2019-10-02 04:00:00 8.4 2 Noroeste 23 Noroeste 0 900.9 -0.8 85
2019-10-02 03:00:00 8.9 2 Sudeste 14 Noroeste 0 901.3 -0.5 74
2019-10-02 02:00:00 9.9 2 Oeste 24 Noroeste 0 901.3 -0.1 66
2019-10-02 01:00:00 9.7 6 Noroeste 21 Noroeste 0 901.7 1.1 69
2019-10-02 00:00:00 9.6 0 Calma 10 Noroeste 0 901.8 1.5 81
2019-10-01 23:00:00 10.8 2 Noroeste 13 Norte 0 901.4 1.8 78
2019-10-01 22:00:00 11.2 0 Calma 4 Norte 0 900.6 1.7 79
2019-10-01 21:00:00 12.8 0 Calma 13 Norte 0 900.3 1.6 74
2019-10-01 20:00:00 15 4 Noroeste 14 Norte 0 899.6 1.2 66
2019-10-01 19:00:00 17.4 4 Nordeste 18 Sur 0 898.9 0.1 56
2019-10-01 18:00:00 20.6 6 Norte 18 Sudeste 0 898.7 -0.8 39
2019-10-01 17:00:00 22.7 4 Sur 25 Este 0 898.4 -1.8 40
2019-10-01 16:00:00 24.7 4 Sudeste 16 Este 0 898.8 -1.8 39
2019-10-01 15:00:00 24 5 Sudeste 16 Este 0 899.5 -2 40
2019-10-01 14:00:00 22.7 4 Este 18 Sudeste 0 900.2 -1.9 42
2019-10-01 13:00:00 23.7 5 Sudeste 15 Sudeste 0 900.6 -1.8 41
2019-10-01 12:00:00 19.1 2 Sudeste 5 Sur 0 901.5 -1 57
2019-10-01 11:00:00 16.1 2 Sudeste 5 Sur 0 902.1 -0.2 71
2019-10-01 10:00:00 11.7 0 Calma 9 Norte 0 902.4 -0.1 89
2019-10-01 09:00:00 8.8 0 Calma 13 Noroeste 0 902.5 -0.4 93
2019-10-01 08:00:00 8.4 3 Noroeste 14 Sudoeste 0 902.3 -1 94
2019-10-01 07:00:00 8.7 2 Noroeste 9 Oeste 0 902.5 -1.4 94
2019-10-01 06:00:00 8.8 2 Noroeste 14 Sudeste 0 902.9 -1.9 94
2019-10-01 05:00:00 9.1 2 Sur 10 Noroeste 0 903.3 -1.7 93
2019-10-01 04:00:00 9.4 2 Noroeste 12 Noroeste 0 903.9 -1.3 92
2019-10-01 03:00:00 9.2 0 Calma 9 Noroeste 0 904.8 -0.3 93
2019-10-01 02:00:00 9.8 0 Calma 7 Noroeste 0 905 -0.1 91
2019-10-01 01:00:00 10.2 2 Oeste 9 Oeste 0 905.2 0.1 91
2019-10-01 00:00:00 10.8 0 Calma 7 Noroeste 0 905.1 0.3 89
2019-09-30 23:00:00 11.7 2 Oeste 10 Noroeste 0 905.1 0.6 85
2019-09-30 22:00:00 13 0 Calma 14 Norte 0 905.1 0.9 82
2019-09-30 21:00:00 13.8 3 Noroeste 14 Sudoeste 0 904.8 0.9 79
2019-09-30 20:00:00 14.6 2 Norte 6 Noroeste 0 904.5 0.4 80
2019-09-30 19:00:00 16.5 0 Calma 6 Norte 0 904.2 -0.1 74
2019-09-30 18:00:00 18.3 2 Noroeste 6 Noroeste 0 903.9 -0.8 66
2019-09-30 17:00:00 21.1 2 Noroeste 15 Sudeste 0 904.1 -1.6 54
2019-09-30 16:00:00 26.6 5 Sudeste 22 Sur 0 904.3 -1.9 35
2019-09-30 15:00:00 27.2 6 Sudeste 21 Sur 0 904.7 -1.8 29
2019-09-30 14:00:00 26.4 7 Sudeste 22 Sur 0 905.7 -1.3 31
2019-09-30 13:00:00 25 7 Sudeste 21 Sudeste 0 906.2 -1.2 31
2019-09-30 12:00:00 21.4 3 Sur 6 Sudeste 0 906.5 -0.9 48
2019-09-30 11:00:00 16.3 3 Noroeste 8 Noroeste 0 907 0 59
2019-09-30 10:00:00 11.8 4 Noroeste 8 Noroeste 0 907.4 0.6 80
2019-09-30 09:00:00 7.8 0 Calma 11 Oeste 0 907.4 0.7 91
2019-09-30 08:00:00 7.9 5 Noroeste 17 Norte 0 907 0.4 88
2019-09-30 07:00:00 7.9 3 Noroeste 12 Noroeste 0 906.8 0 87
2019-09-30 06:00:00 7.6 2 Noroeste 14 Norte 0 906.7 -0.2 90
2019-09-30 05:00:00 7.9 0 Calma 10 Noroeste 0 906.6 -0.4 90
2019-09-30 04:00:00 8.4 2 Noroeste 9 Noroeste 0 906.8 -0.1 86
2019-09-30 03:00:00 8.8 0 Calma 15 Nordeste 0 906.9 -0.1 86
2019-09-30 02:00:00 8.9 2 Noroeste 8 Noroeste 0 907 0.1 86
2019-09-30 01:00:00 9.4 0 Calma 9 Noroeste 0 906.9 0.3 85
2019-09-30 00:00:00 10 0 Calma 8 Noroeste 0 907 1.2 84
2019-09-29 23:00:00 10.7 2 Norte 10 Noroeste 0 906.9 1.8 81
2019-09-29 22:00:00 11.4 0 Calma 11 Noroeste 0 906.6 2.1 82
2019-09-29 21:00:00 12.6 2 Noroeste 14 Sudoeste 0 905.8 1.5 79
2019-09-29 20:00:00 14 3 Noroeste 8 Noroeste 0 905.1 0.7 74
2019-09-29 19:00:00 15.8 2 Noroeste 8 Norte 0 904.5 -0.1 73
2019-09-29 18:00:00 17.6 3 Noroeste 7 Noroeste 0 904.3 -0.8 66
2019-09-29 17:00:00 20.8 2 Sudoeste 10 Sudeste 0 904.4 -1.4 53
2019-09-29 16:00:00 26.4 3 Sur 20 Sudeste 0 904.6 -1.6 32
2019-09-29 15:00:00 27 6 Sudeste 24 Sur 0 905.1 -1.6 27
2019-09-29 14:00:00 26.4 8 Sudeste 27 Sudeste 0 905.8 -1.2 31
2019-09-29 13:00:00 24.3 7 Sudeste 30 Sur 0 906.2 -1.1 34
2019-09-29 12:00:00 20.7 3 Sur 8 Sudeste 0 906.7 -0.9 46
2019-09-29 11:00:00 14.8 3 Sudeste 10 Oeste 0 907 -0.5 68
2019-09-29 10:00:00 10.9 2 Sur 13 Norte 0 907.3 -0.2 83
2019-09-29 09:00:00 8.1 0 Calma 10 Norte 0 907.6 0.1 95
2019-09-29 08:00:00 8.1 2 Oeste 15 Oeste 0 907.5 -0.2 96
2019-09-29 07:00:00 7.9 2 Nordeste 10 Norte 0 907.5 -0.5 96
2019-09-29 06:00:00 8.3 2 Noroeste 12 Noroeste 0 907.5 -1 96
2019-09-29 05:00:00 8.4 3 Noroeste 9 Oeste 0 907.7 -0.8 96
2019-09-29 04:00:00 8.8 2 Este 9 Noroeste 0 908 -0.6 96
2019-09-29 03:00:00 8.9 2 Noroeste 10 Noroeste 0 908.5 -0.2 96
2019-09-29 02:00:00 9.4 0 Calma 11 Norte 0 908.5 -0.4 95
2019-09-29 01:00:00 9.7 0 Calma 13 Norte 0 908.6 -0.1 95
2019-09-29 00:00:00 10.2 0 Calma 6 Noroeste 0 908.7 0.3 94
2019-09-28 23:00:00 10.8 0 Calma 9 Noroeste 0 908.9 1.1 92
2019-09-28 22:00:00 11.6 2 Noroeste 7 Noroeste 0 908.7 1.1 92
2019-09-28 21:00:00 13 0 Calma 11 Noroeste 0 908.4 0.8 87
2019-09-28 20:00:00 13.9 2 Noroeste 6 Noroeste 0 907.8 0.2 87
2019-09-28 19:00:00 15.6 2 Norte 5 Norte 0 907.6 -0.3 82
2019-09-28 18:00:00 17.3 0 Calma 10 Sudeste 0 907.6 -0.9 74
2019-09-28 17:00:00 19.4 3 Sudeste 19 Este 0 907.6 -1.5 63
2019-09-28 16:00:00 20.9 3 Sur 14 Sudeste 0 907.9 -1.5 56
2019-09-28 15:00:00 20 3 Sur 16 Sur 0 908.5 -0.9 59
2019-09-28 14:00:00 22.7 6 Sudeste 26 Este 0 909.1 -0.7 39
2019-09-28 13:00:00 22 8 Sudeste 36 Este 0 909.4 -0.4 39
2019-09-28 12:00:00 19.3 18 Este 47 Este 0 909.4 -0.1 45
2019-09-28 11:00:00 13.5 2 Este 8 Este 0 909.8 0.6 64
2019-09-28 10:00:00 9.4 0 Calma 4 Sudoeste 0 909.8 0.9 93
2019-09-28 09:00:00 6.7 0 Calma 7 Noroeste 0 909.5 0.7 95
2019-09-28 08:00:00 6.3 2 Noroeste 7 Norte 0 909.2 0.5 95
2019-09-28 07:00:00 6.5 2 Noroeste 9 Noroeste 0 908.9 0.2 94
2019-09-28 06:00:00 6.8 0 Calma 11 Noroeste 0 908.8 0.2 93
2019-09-28 05:00:00 7.1 2 Sudeste 7 Noroeste 0 908.7 -0.2 92
2019-09-28 04:00:00 7.6 3 Noroeste 12 Noroeste 0 908.7 0.1 91
2019-09-28 03:00:00 7.8 2 Norte 6 Norte 0 908.6 0.4 91
2019-09-28 02:00:00 8.3 2 Norte 7 Oeste 0 908.9 0.9 90
2019-09-28 01:00:00 8.8 0 Calma 8 Norte 0 908.6 1.2 89
2019-09-28 00:00:00 9.5 0 Calma 8 Noroeste 0 908.2 1.4 89
2019-09-27 23:00:00 10.4 0 Calma 8 Noroeste 0 908 1.9 88
2019-09-27 22:00:00 11.5 0 Calma 5 Noroeste 0 907.4 2 87
2019-09-27 21:00:00 12.8 3 Noroeste 13 Sudoeste 0 906.8 1.6 82
2019-09-27 20:00:00 14.8 2 Noroeste 9 Noroeste 0 906.1 0.9 80
2019-09-27 19:00:00 16.8 3 Norte 7 Norte 0 905.4 0 76
2019-09-27 18:00:00 19.2 3 Noroeste 8 Nordeste 0 905.2 -0.5 70
2019-09-27 17:00:00 20.8 4 Sur 16 Este 0 905.2 -1 60
2019-09-27 16:00:00 22.9 3 Sur 22 Sur 0 905.4 -1.3 53
2019-09-27 15:00:00 23.5 5 Sudeste 18 Sur 0 905.7 -1.3 42
2019-09-27 14:00:00 22.5 4 Sudeste 22 Sudeste 0 906.2 -1.2 44
2019-09-27 13:00:00 23.2 6 Sudeste 21 Sur 0 906.7 -0.9 40
2019-09-27 12:00:00 21.6 6 Sudeste 22 Sur 0 907 -0.6 52
2019-09-27 11:00:00 15.4 2 Sudeste 6 Sudeste 0 907.4 -0.4 77
2019-09-27 10:00:00 11.7 2 Este 5 Este 0 907.6 0.1 97
2019-09-27 09:00:00 9.5 0 Calma 14 Sudoeste 0 907.6 0.1 97
2019-09-27 08:00:00 9.1 0 Calma 15 Sudoeste 0 907.8 0.5 96
2019-09-27 07:00:00 9.4 2 Noroeste 18 Oeste 0 907.5 0 96
2019-09-27 06:00:00 9.7 3 Noroeste 13 Sudeste 0 907.5 -0.3 96
2019-09-27 05:00:00 10.1 0 Calma 16 Norte 0 907.3 -0.7 96
2019-09-27 04:00:00 10.2 2 Norte 9 Sudoeste 0 907.5 -0.7 96
2019-09-27 03:00:00 10.4 0 Calma 6 Noroeste 0 907.8 -0.6 95
2019-09-27 02:00:00 11.1 0 Calma 9 Noroeste 0 908 -0.2 94
2019-09-27 01:00:00 11.5 0 Calma 10 Noroeste 0 908.2 0.3 94
2019-09-27 00:00:00 12.2 0 Calma 6 Noroeste 0 908.4 1.1 91
2019-09-26 23:00:00 13.4 2 Sudeste 12 Noroeste 0 908.2 1.7 87
2019-09-26 22:00:00 14.4 4 Noroeste 10 Noroeste 0 907.9 1.8 84
2019-09-26 21:00:00 14.9 0 Calma 14 Oeste 0 907.3 1.3 85
2019-09-26 20:00:00 16.3 3 Nordeste 8 Noroeste 0 906.5 0.6 80
2019-09-26 19:00:00 18.2 2 Noroeste 13 Sudoeste 0 906.1 0.1 74
2019-09-26 18:00:00 20.2 2 Sur 15 Sur 0 906 -0.2 66
2019-09-26 17:00:00 23 5 Sudeste 21 Sudeste 0 905.9 -0.5 47
2019-09-26 16:00:00 23.9 6 Sudeste 22 Sudeste 0 906 -0.8 45
2019-09-26 15:00:00 24.1 9 Sudeste 29 Sur 0 906.2 -0.8 41
2019-09-26 14:00:00 24 7 Sudeste 31 Este 0 906.4 -0.9 45
2019-09-26 13:00:00 22 10 Sudeste 39 Este 0 906.8 -0.2 47
2019-09-26 12:00:00 20.3 8 Sudeste 25 Este 0 907 0.3 52
2019-09-26 11:00:00 15.1 4 Este 14 Sudeste 0 907.3 0.6 74
2019-09-26 10:00:00 11.4 2 Este 6 Este 0 907 0.5 96
2019-09-26 09:00:00 9.6 0 Calma 10 Norte 0 906.7 0.5 96
2019-09-26 08:00:00 9.3 0 Calma 17 Norte 0 906.7 0.6 95
2019-09-26 07:00:00 9.5 0 Calma 15 Oeste 0 906.5 0.6 96
2019-09-26 06:00:00 9.8 2 Norte 5 Norte 0 906.2 0.2 95
2019-09-26 05:00:00 10.6 4 Noroeste 10 Norte 0 906.1 0.3 94
2019-09-26 04:00:00 11.3 2 Norte 7 Noroeste 0 905.9 -0.2 92
2019-09-26 03:00:00 12.5 2 Noroeste 6 Noroeste 0 906 0.2 91
2019-09-26 02:00:00 12.5 0 Calma 4 Noroeste 0 905.8 0 91
2019-09-26 01:00:00 12.7 0 Calma 4 Noroeste 0 906.1 0.8 89
2019-09-26 00:00:00 13.2 0 Calma 4 Norte 0 905.8 1.2 87
2019-09-25 23:00:00 13.3 0 Calma 8 Noroeste 0 905.8 1.9 85
2019-09-25 22:00:00 13.3 0 Calma 15 Sudoeste 0 905.3 2 86
2019-09-25 21:00:00 14.3 0 Calma 6 Noroeste 0 904.6 1.9 80
2019-09-25 20:00:00 16 2 Noroeste 5 Noroeste 0 903.9 1.4 75
2019-09-25 19:00:00 18.6 3 Sudeste 18 Sudeste 0 903.3 0.7 63
2019-09-25 18:00:00 19.6 4 Sudeste 26 Este 0 902.7 0.1 60
2019-09-25 17:00:00 21.4 5 Sudeste 19 Sur 0 902.5 -0.5 50
2019-09-25 16:00:00 22.4 6 Sudeste 21 Este 0 902.6 -0.8 46
2019-09-25 15:00:00 22.1 6 Sudeste 24 Sur 0 902.6 -1.1 47
2019-09-25 14:00:00 22.3 8 Sudeste 25 Sudeste 0 903 -0.5 46
2019-09-25 13:00:00 20.9 6 Sudeste 26 Sudeste 0 903.4 -0.1 54
2019-09-25 12:00:00 18.5 7 Nordeste 22 Sudeste 0 903.7 0.2 58
2019-09-25 11:00:00 14.7 6 Este 13 Este 0 903.5 0 75
2019-09-25 10:00:00 11.5 2 Norte 15 Sudeste 0 903.5 0.5 95
2019-09-25 09:00:00 8.8 0 Calma 5 Noroeste 0 903.5 0.6 96
2019-09-25 08:00:00 8.6 0 Calma 4 Noroeste 0 903.5 0.6 96
2019-09-25 07:00:00 8.9 3 Noroeste 5 Norte 0 903 -0.2 96
2019-09-25 06:00:00 9.5 0 Calma 8 Noroeste 0 902.9 -0.5 95
2019-09-25 05:00:00 10.2 0 Calma 11 Noroeste 0 902.9 -0.6 94
2019-09-25 04:00:00 10.6 0 Calma 5 Este 0 903.2 -0.6 94
2019-09-25 03:00:00 10.8 2 Nordeste 8 Oeste 0 903.4 -0.8 93
2019-09-25 02:00:00 11 3 Noroeste 8 Oeste 0 903.5 -0.3 91
2019-09-25 01:00:00 11.4 0 Calma 7 Noroeste 0 903.8 -0.4 90
2019-09-25 00:00:00 11.4 2 Norte 15 Sudoeste 0 904.2 0.4 89
2019-09-24 23:00:00 12.1 2 Este 8 Norte 0 903.8 0.6 86
2019-09-24 22:00:00 13.2 2 Noroeste 15 Sudoeste 0 904.2 1.4 83
2019-09-24 21:00:00 15.4 4 Norte 12 Oeste 0 903.8 1.5 71
2019-09-24 20:00:00 18.1 3 Nordeste 21 Este 0 903.2 0.8 60
2019-09-24 19:00:00 20.5 5 Sudeste 28 Este 0 902.8 0.1 48
2019-09-24 18:00:00 21.7 7 Sudeste 24 Este 0 902.3 -0.8 47
2019-09-24 17:00:00 23.5 6 Sudeste 26 Este 0 902.4 -1.3 46
2019-09-24 16:00:00 25.9 8 Sudeste 32 Sudeste 0 902.7 -1.2 38
2019-09-24 15:00:00 25.2 8 Sudeste 30 Este 0 903.1 -1.3 37
2019-09-24 14:00:00 24.8 7 Sudeste 30 Sudeste 0 903.7 -1.3 40
2019-09-24 13:00:00 22.6 13 Este 38 Este 0 903.9 -1.5 42
2019-09-24 12:00:00 20.4 4 Sur 13 Este 0 904.4 -1.5 46
2019-09-24 11:00:00 15.3 2 Sudeste 10 Noroeste 0 905 -1 72
2019-09-24 10:00:00 11.5 4 Norte 8 Este 0 905.4 -0.7 90
2019-09-24 09:00:00 8.7 0 Calma 11 Noroeste 0 905.9 0 96
2019-09-24 08:00:00 8.5 5 Norte 22 Noroeste 0 906 -0.2 96
2019-09-24 07:00:00 8.7 3 Noroeste 10 Norte 0 906.1 -0.6 96
2019-09-24 06:00:00 9 2 Sudoeste 15 Sudoeste 0 905.9 -1 96
2019-09-24 05:00:00 9 2 Noroeste 11 Noroeste 0 906.2 -1.2 95
2019-09-24 04:00:00 9.5 2 Noroeste 19 Norte 0 906.7 -0.9 94
2019-09-24 03:00:00 9.3 0 Calma 12 Noroeste 0 906.9 -1.1 95
2019-09-24 02:00:00 9.6 2 Noroeste 10 Noroeste 0 907.4 -0.7 94
2019-09-24 01:00:00 9.8 3 Noroeste 8 Noroeste 0 907.6 -0.2 94
2019-09-24 00:00:00 10.2 2 Noroeste 10 Norte 0 908 0.6 92
2019-09-23 23:00:00 10.6 2 Noroeste 7 Norte 0 908.1 1.3 93
2019-09-23 22:00:00 11.4 2 Nordeste 7 Noroeste 0 907.8 1.4 90
2019-09-23 21:00:00 12.3 0 Calma 6 Norte 0 907.4 1.3 86
2019-09-23 20:00:00 13.8 0 Calma 8 Norte 0 906.8 0.7 82
2019-09-23 19:00:00 15.9 3 Noroeste 14 Nordeste 0 906.4 0.6 75
2019-09-23 18:00:00 18.1 2 Sur 15 Este 0 906.1 -0.2 64
2019-09-23 17:00:00 19.4 5 Sudeste 23 Este 0 906.1 -0.2 49
2019-09-23 16:00:00 20.4 6 Sudeste 19 Sudeste 0 905.8 -0.6 48
2019-09-23 15:00:00 20.3 6 Sudeste 24 Sur 0 906.3 -0.5 45
2019-09-23 14:00:00 20.6 7 Sudeste 24 Sur 0 906.3 -0.8 46
2019-09-23 13:00:00 19.8 7 Sudeste 23 Sur 0 906.4 -1 48
2019-09-23 12:00:00 17.7 7 Sudeste 21 Este 0 906.8 -0.5 61
2019-09-23 11:00:00 13.3 3 Sur 10 Noroeste 0 907.1 0.3 74
2019-09-23 10:00:00 9.8 2 Sudeste 5 Noroeste 0 907.4 0.9 95
2019-09-23 09:00:00 8.1 2 Noroeste 12 Noroeste 0 907.3 1.1 96
2019-09-23 08:00:00 7.5 3 Noroeste 9 Noroeste 0 906.8 1.2 96
2019-09-23 07:00:00 7.2 0 Calma 9 Noroeste 0 906.5 1 95
2019-09-23 06:00:00 7.7 3 Noroeste 16 Noroeste 0 906.2 0.8 95
2019-09-23 05:00:00 8 2 Oeste 13 Norte 0 905.6 0.5 94
2019-09-23 04:00:00 8.4 3 Noroeste 14 Sudoeste 0 905.5 0.7 95
2019-09-23 03:00:00 9.3 2 Noroeste 16 Noroeste 0 905.4 0.6 93
2019-09-23 02:00:00 10 6 Norte 20 Norte 0 905.1 0.7 94
2019-09-23 01:00:00 10 2 Noroeste 15 Oeste 0 904.8 1 96
2019-09-23 00:00:00 10.8 0 Calma 7 Sudoeste 0 904.8 1.8 96
2019-09-22 23:00:00 11.4 0 Calma 4 Norte 0 904.4 2.3 96
2019-09-22 22:00:00 11.7 0 Calma 6 Noroeste 0 903.8 2.2 95
2019-09-22 21:00:00 12.6 0 Calma 6 Noroeste 0 903 1.6 93
2019-09-22 20:00:00 14 0 Calma 5 Noroeste 0 902.1 1 90
2019-09-22 19:00:00 16.1 0 Calma 12 Sudeste 0 901.6 0.9 86
2019-09-22 18:00:00 17.4 5 Sur 15 Sur 0 901.4 0.3 82
2019-09-22 17:00:00 17.7 4 Sudeste 19 Sur 0 901.1 0.7 84
2019-09-22 16:00:00 18 4 Sudeste 16 Este 0 900.7 -0.6 88
2019-09-22 15:00:00 16.5 5 Sudeste 28 Sudeste 5.6 901.1 -0.2 93
2019-09-22 14:00:00 16.3 13 Sudeste 42 Este 0.8 900.4 -0.6 87
2019-09-22 13:00:00 16.2 5 Sudeste 23 Sur 1.4 901.3 0.6 92
2019-09-22 12:00:00 15.5 11 Este 31 Este 4.2 901.3 0.9 93
2019-09-22 11:00:00 15.3 16 Este 40 Este 3.2 901 0.5 94
2019-09-22 10:00:00 15.2 11 Sudeste 32 Este 3.6 900.7 0.3 94
2019-09-22 09:00:00 14.9 6 Sudeste 24 Sudeste 1.2 900.4 0.1 96
2019-09-22 08:00:00 14.7 2 Este 17 Sur 0.6 900.5 0.2 97
2019-09-22 07:00:00 14.6 2 Sudeste 8 Noroeste 8.4 900.4 -0.4 97
2019-09-22 06:00:00 14.5 3 Nordeste 14 Sudeste 7.6 900.3 -1.2 97
2019-09-22 05:00:00 14.5 3 Sudeste 16 Sudeste 0.8 900.3 -1.4 96
2019-09-22 04:00:00 14.6 3 Este 15 Sur 0.2 900.8 -0.8 96
2019-09-22 03:00:00 14.6 0 Calma 17 Sudeste 1.6 901.5 -0.3 96
2019-09-22 02:00:00 14.8 3 Norte 16 Sur 4.2 901.7 0.3 95
2019-09-22 01:00:00 14.9 2 Norte 34 Este 5.2 901.6 0.1 95
2019-09-22 00:00:00 15.5 5 Sudeste 21 Este 0.8 901.8 0.5 88
2019-09-21 23:00:00 16.8 3 Sudeste 19 Sudeste 0 901.4 0.3 75
2019-09-21 22:00:00 17.8 7 Sudeste 25 Este 0 901.5 0.4 63
2019-09-21 21:00:00 15.8 4 Noroeste 13 Este 0 901.3 0.4 81
2019-09-21 20:00:00 15.7 4 Noroeste 16 Noroeste 0 901.1 0.6 84
2019-09-21 19:00:00 16.3 6 Noroeste 28 Norte 0 901.1 0.1 80
2019-09-21 18:00:00 17.6 4 Oeste 30 Noroeste 0 900.9 -0.7 70
2019-09-21 17:00:00 19.8 7 Este 23 Sudeste 0 900.5 -1.7 53
2019-09-21 16:00:00 20 9 Sudeste 31 Este 0 901 -1.1 54
2019-09-21 15:00:00 19.7 7 Sudeste 31 Sudeste 0 901.6 -0.7 55
2019-09-21 14:00:00 19.2 6 Sudeste 24 Sudoeste 0 902.2 -1 59
2019-09-21 13:00:00 22 8 Sudeste 25 Este 0 902.1 -1.7 51
2019-09-21 12:00:00 19.3 4 Sudeste 12 Sudeste 0 902.3 -1.5 66
2019-09-21 11:00:00 16 3 Noroeste 8 Noroeste 0 903.2 -0.2 83
2019-09-21 10:00:00 14.8 2 Sudeste 18 Sudoeste 0.2 903.8 0.2 91
2019-09-21 09:00:00 14.8 5 Sudeste 17 Este 0.2 903.8 -0.1 88
2019-09-21 08:00:00 14.2 0 Calma 5 Noroeste 0 903.4 -0.8 92
2019-09-21 07:00:00 14.2 3 Noroeste 8 Norte 0 903.6 -1.1 91
2019-09-21 06:00:00 13.9 3 Norte 13 Sudoeste 0 903.9 -1.1 94
2019-09-21 05:00:00 13.9 2 Noroeste 5 Norte 0 904.2 -1.1 94
2019-09-21 04:00:00 14.1 2 Norte 5 Norte 0 904.7 -0.9 93
2019-09-21 03:00:00 14.3 0 Calma 7 Norte 0 905 -1.1 92
2019-09-21 02:00:00 15.1 2 Noroeste 13 Sudoeste 0 905.3 -0.8 88
2019-09-21 01:00:00 15.9 5 Este 16 Sur 0 905.6 -0.1 84
2019-09-21 00:00:00 16.7 5 Sur 23 Sur 0 906.1 0.4 78
2019-09-20 23:00:00 17 4 Sudeste 20 Este 0 906.1 0.6 80
2019-09-20 22:00:00 17.6 9 Este 27 Sudeste 0 905.7 0.5 74
2019-09-20 21:00:00 16.1 4 Noroeste 18 Norte 0 905.7 0.5 87
2019-09-20 20:00:00 16.1 4 Norte 10 Oeste 0 905.5 0 90
2019-09-20 19:00:00 17.5 2 Noroeste 7 Oeste 0 905.2 -0.6 86
2019-09-20 18:00:00 20 3 Noroeste 15 Sur 0.4 905.2 -1.1 73
2019-09-20 17:00:00 22.3 5 Sudeste 23 Este 0 905.5 -1.4 51
2019-09-20 16:00:00 23.5 5 Sudeste 16 Sur 0 905.8 -1.5 45
2019-09-20 15:00:00 21.9 8 Sudeste 30 Sudeste 0 906.3 -1.5 52
2019-09-20 14:00:00 23 6 Sudeste 29 Sur 0 906.9 -1.6 52
2019-09-20 13:00:00 23.2 7 Sudeste 27 Sur 0 907.3 -1.2 48
2019-09-20 12:00:00 20.9 4 Sudeste 14 Sur 0 907.8 -0.2 58
2019-09-20 11:00:00 17 3 Este 6 Sudeste 0 908.5 0.8 74
2019-09-20 10:00:00 14.5 0 Calma 5 Este 0 908.5 1.2 91
2019-09-20 09:00:00 13 2 Noroeste 5 Norte 0 908 0.6 96
2019-09-20 08:00:00 12 0 Calma 12 Sudoeste 0 907.7 0.1 96
2019-09-20 07:00:00 11.6 2 Este 15 Sudeste 0 907.3 -0.7 96
2019-09-20 06:00:00 12.1 0 Calma 4 Norte 0 907.4 -0.7 94
2019-09-20 05:00:00 12.7 2 Noroeste 8 Noroeste 0 907.6 -0.7 93
2019-09-20 04:00:00 12.6 2 Norte 10 Norte 0 908 -0.2 94
2019-09-20 03:00:00 13.3 0 Calma 5 Norte 0 908.1 -0.2 92
2019-09-20 02:00:00 13.5 2 Noroeste 6 Noroeste 0 908.3 0.1 93
2019-09-20 01:00:00 13.8 0 Calma 4 Noroeste 0 908.2 0.7 90
2019-09-20 00:00:00 14.8 0 Calma 7 Noroeste 0 908.3 1.2 90
2019-09-19 23:00:00 14.9 3 Sudeste 6 Este 0 908.2 1.9 89
2019-09-19 22:00:00 15.2 0 Calma 9 Noroeste 0 907.5 1.6 87
2019-09-19 21:00:00 15.8 0 Calma 4 Noroeste 0 907.1 1.5 84
2019-09-19 20:00:00 17.8 0 Calma 23 Oeste 0 906.3 0.9 72
2019-09-19 19:00:00 19.6 8 Noroeste 31 Sur 0 905.9 0 55
2019-09-19 18:00:00 21 8 Sudeste 25 Sudeste 0 905.6 -1 52
2019-09-19 17:00:00 22.4 3 Sur 15 Este 0 905.4 -1 63
2019-09-19 16:00:00 19.3 0 Calma 5 Noroeste 0 905.9 -0.4 81
2019-09-19 15:00:00 17.6 0 Calma 28 Noroeste 2.2 906.6 -0.1 85
2019-09-19 14:00:00 21.2 9 Oeste 28 Noroeste 0 906.4 -0.6 52
2019-09-19 13:00:00 24 10 Sudeste 28 Este 0 906.3 -1 40
2019-09-19 12:00:00 21.3 9 Sudeste 25 Sudeste 0 906.7 -0.5 49
2019-09-19 11:00:00 15.8 2 Sudeste 6 Sur 0 907 -0.1 85
2019-09-19 10:00:00 13.1 0 Calma 14 Sudoeste 0 907.3 0.3 96
2019-09-19 09:00:00 11.9 0 Calma 14 Sudoeste 0 907.2 0.3 97
2019-09-19 08:00:00 11 0 Calma -- -- -- 907.1 0.3 97
2019-09-19 07:00:00 10.7 0 Calma 14 Sudoeste 0 907 -0.3 96
2019-09-19 06:00:00 10.9 0 Calma 15 Norte 0 906.9 -0.8 96
2019-09-19 05:00:00 11.2 3 Noroeste 14 Norte 0 906.8 -1 96
2019-09-19 04:00:00 11.9 0 Calma 13 Norte 0.2 907.3 -0.5 96
2019-09-19 03:00:00 12.2 5 Norte 13 Norte 0 907.7 0 96
2019-09-19 02:00:00 11.7 5 Norte 15 Norte 0 907.8 0 97
2019-09-19 01:00:00 11.1 2 Noroeste 14 Norte 0 907.8 0.1 96
2019-09-19 00:00:00 11.2 3 Noroeste 9 Norte 0 907.7 0.3 96
2019-09-18 23:00:00 11.6 3 Noroeste 22 Norte 0 907.8 0.7 95
2019-09-18 22:00:00 12.3 5 Norte 19 Norte 0 907.7 0.8 95
2019-09-18 21:00:00 12.7 2 Noroeste 9 Noroeste 0 907.4 0.6 94
2019-09-18 20:00:00 13.6 0 Calma 28 Norte 0 907.1 2 93
2019-09-18 19:00:00 14.3 5 Noroeste 21 Norte 2.4 906.9 2.7 92
2019-09-18 18:00:00 16.2 4 Norte 35 Noroeste 1 906.8 2.3 79
2019-09-18 17:00:00 21.5 15 Noroeste 50 Noroeste 0 905.1 0.1 43
2019-09-18 16:00:00 26.6 7 Sudeste 23 Este 0 904.2 -1.2 32
2019-09-18 15:00:00 24.4 6 Sudeste 21 Este 0 904.5 -0.9 42
2019-09-18 14:00:00 24.7 3 Sudeste 17 Este 0 905 -0.7 41
2019-09-18 13:00:00 23.2 4 Sudeste 23 Sur 0 905.4 -0.4 53
2019-09-18 12:00:00 23.1 6 Sudeste 18 Sudeste 0 905.4 -0.3 58
2019-09-18 11:00:00 17.5 2 Sudeste 6 Sur 0 905.7 0.3 85
2019-09-18 10:00:00 14.9 2 Este 6 Noroeste 0 905.8 0.7 96
2019-09-18 09:00:00 13.4 0 Calma 14 Norte 0 905.7 0.6 96
2019-09-18 08:00:00 12.5 2 Noroeste 10 Noroeste 0 905.4 0.3 96
2019-09-18 07:00:00 12.8 2 Noroeste 14 Norte 0 905.1 -0.5 96
2019-09-18 06:00:00 13.4 0 Calma 8 Norte 0 905.1 -1 96
2019-09-18 05:00:00 14.1 0 Calma 16 Nordeste 0 905.1 -1.2 96
2019-09-18 04:00:00 15.1 0 Calma 7 Norte 0 905.6 -0.4 96
2019-09-18 03:00:00 15.5 4 Este 7 Este 0.2 906.1 -0.1 96
2019-09-18 02:00:00 15.5 3 Norte 9 Noroeste 0.2 906.3 0.3 96
2019-09-18 01:00:00 15.5 2 Sudeste 7 Norte 0 906 0.5 96
2019-09-18 00:00:00 15.6 2 Norte 4 Norte 0 906.2 0.6 96
2019-09-17 23:00:00 15.7 2 Noroeste 5 Noroeste 0 906 0.8 95
2019-09-17 22:00:00 16.2 0 Calma 6 Norte 0 905.5 0.6 92
2019-09-17 21:00:00 16.9 2 Noroeste 8 Noroeste 0 905.6 1.1 93
2019-09-15 18:00:00 23.6 8 Sudeste 32 Este 0 910.1 0.9 39
2019-09-15 17:00:00 25.4 5 Sudeste 22 Este 0 909.3 -1 40
2019-09-15 16:00:00 26.8 7 Sudeste 26 Sur 0 909 -2.1 39
2019-09-15 15:00:00 28.5 5 Sudeste 16 Sur 0 909.2 -2.3 34
2019-09-15 14:00:00 26.6 5 Sudeste 21 Este 0 910.3 -1.7 38
2019-09-15 13:00:00 24.2 6 Sudeste 17 Sur 0 911.1 -0.9 46
2019-09-15 12:00:00 23.4 3 Sudeste 9 Este 0 911.5 -0.3 50
2019-09-15 11:00:00 18.8 3 Noroeste 14 Sudoeste 0 912 -0.2 69
2019-09-15 10:00:00 15.8 2 Norte 11 Noroeste 0 912 -0.9 90
2019-09-15 09:00:00 14.4 6 Noroeste 19 Norte 0 911.8 -1.3 94
2019-09-15 08:00:00 13.6 0 Calma 30 Norte 0 912.2 -0.5 95
2019-09-15 07:00:00 13.9 14 Norte 32 Noroeste 0.6 912.9 -0.4 95
2019-09-15 06:00:00 13.6 0 Calma 9 Noroeste 0 913.1 -0.4 96
2019-09-15 05:00:00 13.8 3 Oeste 22 Norte 0 912.7 -1.4 95
2019-09-15 04:00:00 14.2 2 Norte 8 Noroeste 0.2 913.3 -0.7 95
2019-09-15 03:00:00 14.5 4 Noroeste 19 Noroeste 0 913.5 -0.3 94
2019-09-15 02:00:00 14.4 8 Noroeste 19 Noroeste 1.8 914.1 0.6 93
2019-09-15 01:00:00 13.7 2 Noroeste 5 Oeste 0 914 0.7 84
2019-09-15 00:00:00 13.4 2 Noroeste 15 Norte 0 913.8 0.9 84